createdAt,value
2018-09-03T00:00:46.601Z,4.17
2018-09-03T00:03:15.608Z,5.17
2018-09-03T00:05:44.596Z,8.20
2018-09-03T00:08:13.616Z,4.10
2018-09-03T00:10:42.684Z,5.03
2018-09-03T00:13:11.704Z,5.13
2018-09-03T00:15:40.754Z,6.20
2018-09-03T00:18:09.825Z,6.30
2018-09-03T00:20:38.861Z,4.87
2018-09-03T00:23:07.883Z,5.80
2018-09-03T00:25:36.886Z,4.63
2018-09-03T00:28:06.165Z,4.73
2018-09-03T00:30:35.185Z,4.07
2018-09-03T00:33:09.690Z,6.13
2018-09-03T00:35:43.963Z,6.03
2018-09-03T00:38:18.376Z,6.23
2018-09-03T00:40:52.882Z,4.60
2018-09-03T00:43:27.287Z,5.90
2018-09-03T00:46:01.534Z,5.33
2018-09-03T00:48:30.577Z,6.20
2018-09-03T00:50:59.595Z,4.50
2018-09-03T00:53:28.617Z,5.30
2018-09-03T00:55:57.659Z,5.20
2018-09-03T00:58:26.695Z,4.33
2018-09-03T01:00:55.728Z,6.47
2018-09-03T01:03:24.729Z,5.37
2018-09-03T01:05:53.770Z,4.93
2018-09-03T01:08:22.831Z,6.43
2018-09-03T01:10:51.853Z,4.90
2018-09-03T01:13:20.886Z,4.77
2018-09-03T01:15:49.991Z,4.83
2018-09-03T01:18:19.082Z,4.67
2018-09-03T01:20:48.735Z,4.57
2018-09-03T01:23:18.129Z,3.73
2018-09-03T01:25:47.188Z,7.70
2018-09-03T01:28:16.187Z,4.83
2018-09-03T01:30:45.226Z,5.03
2018-09-03T01:33:14.246Z,6.13
2018-09-03T01:35:43.252Z,5.23
2018-09-03T01:38:12.301Z,6.37
2018-09-03T01:40:41.473Z,4.93
2018-09-03T01:43:10.669Z,5.03
2018-09-03T01:45:39.699Z,5.10
2018-09-03T01:48:08.724Z,5.53
2018-09-03T01:50:37.693Z,6.83
2018-09-03T01:53:06.847Z,5.57
2018-09-03T01:55:35.866Z,4.20
2018-09-03T01:58:04.962Z,5.67
2018-09-03T02:00:33.976Z,5.03
2018-09-03T02:03:02.999Z,5.20
2018-09-03T02:05:32.011Z,4.17
2018-09-03T02:08:01.060Z,4.03
2018-09-03T02:10:30.092Z,5.57
2018-09-03T02:12:59.096Z,5.00
2018-09-03T02:15:28.182Z,5.60
2018-09-03T02:17:57.217Z,4.80
2018-09-03T02:20:26.282Z,4.27
2018-09-03T02:22:55.266Z,6.83
2018-09-03T02:25:24.395Z,4.57
2018-09-03T02:27:53.479Z,7.43
2018-09-03T02:30:22.492Z,4.73
2018-09-03T02:32:51.579Z,4.10
2018-09-03T02:35:20.643Z,4.67
2018-09-03T02:37:49.912Z,5.97
2018-09-03T02:40:18.970Z,6.27
2018-09-03T02:42:47.979Z,6.03
2018-09-03T02:45:16.977Z,4.73
2018-09-03T02:47:45.980Z,5.90
2018-09-03T02:50:15.053Z,4.83
2018-09-03T02:52:44.042Z,4.80
2018-09-03T02:55:13.093Z,5.10
2018-09-03T02:57:42.116Z,4.70
2018-09-03T03:00:11.139Z,4.30
2018-09-03T03:02:40.174Z,4.60
2018-09-03T03:05:09.287Z,6.50
2018-09-03T03:07:38.362Z,5.00
2018-09-03T03:10:08.142Z,5.70
2018-09-03T03:12:37.206Z,4.43
2018-09-03T03:15:06.629Z,4.60
2018-09-03T03:17:36.340Z,7.23
2018-09-03T03:20:05.988Z,5.37
2018-09-03T03:22:35.064Z,8.27
2018-09-03T03:25:04.793Z,4.83
2018-09-03T03:27:33.816Z,5.57
2018-09-03T03:30:02.873Z,5.00
2018-09-03T03:32:31.904Z,5.87
2018-09-03T03:35:00.910Z,5.43
2018-09-03T03:37:29.904Z,6.53
2018-09-03T03:39:59.026Z,5.20
2018-09-03T03:42:28.053Z,8.90
2018-09-03T03:44:57.071Z,4.43
2018-09-03T03:47:26.110Z,5.13
2018-09-03T03:49:55.549Z,5.37
2018-09-03T03:52:31.244Z,5.37
2018-09-03T03:55:00.344Z,5.37
2018-09-03T03:57:29.540Z,6.47
2018-09-03T03:59:58.756Z,5.87
2018-09-03T04:02:27.872Z,5.93
2018-09-03T04:04:56.870Z,6.50
2018-09-03T04:07:26.066Z,4.80
2018-09-03T04:09:55.436Z,4.93
2018-09-03T04:12:24.459Z,5.20
2018-09-03T04:14:53.514Z,7.83
2018-09-03T04:17:22.537Z,5.30
2018-09-03T04:20:07.392Z,5.53
2018-09-03T04:22:36.381Z,6.83
2018-09-03T04:25:05.625Z,5.53
2018-09-03T04:27:34.607Z,6.10
2018-09-03T04:30:04.054Z,5.40
2018-09-03T04:32:33.052Z,8.33
2018-09-03T04:35:02.171Z,7.83
2018-09-03T04:37:31.267Z,7.23
2018-09-03T04:40:00.404Z,7.00
2018-09-03T04:42:29.456Z,6.87
2018-09-03T04:44:58.533Z,5.23
2018-09-03T04:47:27.912Z,5.70
2018-09-03T04:49:56.438Z,6.90
2018-09-03T04:52:25.577Z,7.83
2018-09-03T04:54:55.390Z,8.13
2018-09-03T04:57:24.419Z,7.47
2018-09-03T04:59:53.576Z,6.43
2018-09-03T05:02:22.640Z,6.70
2018-09-03T05:04:51.695Z,30.23
2018-09-03T05:07:21.444Z,8.73
2018-09-03T05:09:50.507Z,7.87
2018-09-03T05:12:19.777Z,6.60
2018-09-03T05:14:48.797Z,7.77
2018-09-03T05:17:18.031Z,8.20
2018-09-03T05:19:47.057Z,7.93
2018-09-03T05:22:16.057Z,12.53
2018-09-03T05:24:45.113Z,9.27
2018-09-03T05:27:14.192Z,9.27
2018-09-03T05:29:43.577Z,8.73
2018-09-03T05:32:12.638Z,8.23
2018-09-03T05:34:41.718Z,9.23
2018-09-03T05:37:10.904Z,10.20
2018-09-03T05:39:39.935Z,9.90
2018-09-03T05:42:08.991Z,11.50
2018-09-03T05:44:38.021Z,9.97
2018-09-03T05:47:07.517Z,8.97
2018-09-03T05:49:36.578Z,8.40
2018-09-03T05:52:05.690Z,9.13
2018-09-03T05:54:34.742Z,10.43
2018-09-03T05:57:04.155Z,10.53
2018-09-03T05:59:33.279Z,9.03
2018-09-03T06:02:02.346Z,8.77
2018-09-03T06:04:31.434Z,8.10
2018-09-03T06:07:00.508Z,9.73
2018-09-03T06:09:29.633Z,9.97
2018-09-03T06:11:58.815Z,8.27
2018-09-03T06:14:28.069Z,10.60
2018-09-03T06:16:57.591Z,11.73
2018-09-03T06:19:26.874Z,8.50
2018-09-03T06:21:56.027Z,10.20
2018-09-03T06:24:25.104Z,12.20
2018-09-03T06:26:54.242Z,8.03
2018-09-03T06:29:23.332Z,8.80
2018-09-03T06:31:52.432Z,8.80
2018-09-03T06:34:21.476Z,8.30
2018-09-03T06:36:50.483Z,6.97
2018-09-03T06:39:19.642Z,14.13
2018-09-03T06:41:48.836Z,9.07
2018-09-03T06:44:17.871Z,9.80
2018-09-03T06:46:46.895Z,10.37
2018-09-03T06:49:16.000Z,11.53
2018-09-03T06:51:45.042Z,8.37
2018-09-03T06:54:14.439Z,8.23
2018-09-03T06:56:43.542Z,8.37
2018-09-03T06:59:12.626Z,7.87
2018-09-03T07:01:41.677Z,9.60
2018-09-03T07:04:12.252Z,8.20
2018-09-03T07:06:41.571Z,8.77
2018-09-03T07:09:11.056Z,9.77
2018-09-03T07:11:40.063Z,8.37
2018-09-03T07:14:09.101Z,7.93
2018-09-03T07:16:38.232Z,9.03
2018-09-03T07:19:07.386Z,9.07
2018-09-03T07:21:36.432Z,10.33
2018-09-03T07:24:06.265Z,9.43
2018-09-03T07:26:35.702Z,10.37
2018-09-03T07:29:04.796Z,9.33
2018-09-03T07:31:34.064Z,9.80
2018-09-03T07:34:03.088Z,10.23
2018-09-03T07:36:32.149Z,10.20
2018-09-03T07:39:01.554Z,7.90
2018-09-03T07:41:30.579Z,10.17
2018-09-03T07:43:59.617Z,8.63
2018-09-03T07:46:28.873Z,8.33
2018-09-03T07:48:58.160Z,9.43
2018-09-03T07:51:27.361Z,8.10
2018-09-03T07:53:57.702Z,10.33
2018-09-03T07:56:26.762Z,9.40
2018-09-03T07:58:55.870Z,11.10
2018-09-03T08:01:24.901Z,10.00
2018-09-03T08:03:53.998Z,11.07
2018-09-03T08:06:23.030Z,13.03
2018-09-03T08:08:52.225Z,9.53
2018-09-03T08:11:21.278Z,9.43
2018-09-03T08:13:50.328Z,12.17
2018-09-03T08:16:19.480Z,11.00
2018-09-03T08:18:49.696Z,9.07
2018-09-03T08:21:18.748Z,9.23
2018-09-03T08:23:47.877Z,10.33
2018-09-03T08:26:16.879Z,11.87
2018-09-03T08:28:45.912Z,9.97
2018-09-03T08:31:15.036Z,11.10
2018-09-03T08:33:44.035Z,10.47
2018-09-03T08:36:13.070Z,10.80
2018-09-03T08:38:42.154Z,12.57
2018-09-03T08:41:11.254Z,9.97
2018-09-03T08:43:40.423Z,10.33
2018-09-03T08:46:09.502Z,11.87
2018-09-03T08:48:38.939Z,11.10
2018-09-03T08:51:07.955Z,11.97
2018-09-03T08:53:37.032Z,10.90
2018-09-03T08:56:06.539Z,9.77
2018-09-03T08:58:35.850Z,10.43
2018-09-03T09:01:05.140Z,11.43
2018-09-03T09:03:40.340Z,11.20
2018-09-03T09:06:09.795Z,10.00
2018-09-03T09:08:38.852Z,9.73
2018-09-03T09:11:09.030Z,11.07
2018-09-03T09:13:38.236Z,10.97
2018-09-03T09:16:07.464Z,11.07
2018-09-03T09:18:36.884Z,10.27
2018-09-03T09:21:06.107Z,10.97
2018-09-03T09:23:35.331Z,10.60
2018-09-03T09:26:04.353Z,12.30
2018-09-03T09:28:33.431Z,9.80
2018-09-03T09:31:02.521Z,13.13
2018-09-03T09:33:31.685Z,12.27
2018-09-03T09:36:00.914Z,11.97
2018-09-03T09:38:30.185Z,10.47
2018-09-03T09:40:59.191Z,11.10
2018-09-03T09:43:28.289Z,12.67
2018-09-03T09:45:57.374Z,10.17
2018-09-03T09:48:26.464Z,11.87
2018-09-03T09:50:55.522Z,10.90
2018-09-03T09:53:24.570Z,12.23
2018-09-03T09:55:53.577Z,11.57
2018-09-03T09:58:22.703Z,11.23
2018-09-03T10:00:57.175Z,10.70
2018-09-03T10:03:26.271Z,11.67
2018-09-03T10:05:55.313Z,11.67
2018-09-03T10:08:24.432Z,14.20
2018-09-03T10:10:53.682Z,10.93
2018-09-03T10:13:22.723Z,11.37
2018-09-03T10:15:52.092Z,15.10
2018-09-03T10:18:21.248Z,14.23
2018-09-03T10:20:50.460Z,11.57
2018-09-03T10:23:19.854Z,11.87
2018-09-03T10:25:49.137Z,11.13
2018-09-03T10:28:18.160Z,12.63
2018-09-03T10:30:47.252Z,10.53
2018-09-03T10:33:16.474Z,11.63
2018-09-03T10:35:46.738Z,14.37
2018-09-03T10:38:16.205Z,10.63
2018-09-03T10:40:46.368Z,12.13
2018-09-03T10:43:15.419Z,10.70
2018-09-03T10:45:45.907Z,10.83
2018-09-03T10:48:16.419Z,10.70
2018-09-03T10:50:46.165Z,11.13
2018-09-03T10:53:15.295Z,11.70
2018-09-03T10:55:47.311Z,10.57
2018-09-03T10:58:16.356Z,10.63
2018-09-03T11:00:45.365Z,9.83
2018-09-03T11:03:14.510Z,12.20
2018-09-03T11:05:43.575Z,10.77
2018-09-03T11:08:12.792Z,11.87
2018-09-03T11:10:41.892Z,9.53
2018-09-03T11:13:11.005Z,9.80
2018-09-03T11:15:40.445Z,9.67
2018-09-03T11:18:09.648Z,9.20
2018-09-03T11:20:38.831Z,9.93
2018-09-03T11:23:08.003Z,11.10
2018-09-03T11:25:37.074Z,49.23
2018-09-03T11:28:06.404Z,10.30
2018-09-03T11:30:35.510Z,8.77
2018-09-03T11:33:04.889Z,9.30
2018-09-03T11:35:33.918Z,8.63
2018-09-03T11:38:02.934Z,10.10
2018-09-03T11:40:32.107Z,8.50
2018-09-03T11:43:01.332Z,8.60
2018-09-03T11:45:30.639Z,8.23
2018-09-03T11:48:00.340Z,8.57
2018-09-03T11:50:29.434Z,8.40
2018-09-03T11:52:58.505Z,8.13
2018-09-03T11:55:27.532Z,7.87
2018-09-03T11:57:56.594Z,8.03
2018-09-03T12:00:27.505Z,7.80
2018-09-03T12:02:56.807Z,8.00
2018-09-03T12:05:25.945Z,8.03
2018-09-03T12:07:55.163Z,8.13
2018-09-03T12:10:24.426Z,8.53
2018-09-03T12:12:53.458Z,7.67
2018-09-03T12:15:26.371Z,8.00
2018-09-03T12:17:55.401Z,8.17
2018-09-03T12:20:24.417Z,7.93
2018-09-03T12:22:53.497Z,8.20
2018-09-03T12:25:22.630Z,8.10
2018-09-03T12:27:51.690Z,8.57
2018-09-03T12:30:20.777Z,7.37
2018-09-03T12:32:50.126Z,7.80
2018-09-03T12:35:19.260Z,7.97
2018-09-03T12:37:48.303Z,8.27
2018-09-03T12:40:17.383Z,8.00
2018-09-03T12:42:47.133Z,10.87
2018-09-03T12:45:16.405Z,8.50
2018-09-03T12:47:45.478Z,8.00
2018-09-03T12:50:14.508Z,8.53
2018-09-03T12:52:43.846Z,9.83
2018-09-03T12:55:12.959Z,9.00
2018-09-03T12:57:42.098Z,8.43
2018-09-03T13:00:15.600Z,8.63
2018-09-03T13:02:44.943Z,7.43
2018-09-03T13:05:14.231Z,8.23
2018-09-03T13:07:43.311Z,8.70
2018-09-03T13:10:12.795Z,8.00
2018-09-03T13:12:41.952Z,8.07
2018-09-03T13:15:11.390Z,8.37
2018-09-03T13:17:45.223Z,7.93
2018-09-03T13:20:19.803Z,8.60
2018-09-03T13:22:49.842Z,7.00
2018-09-03T13:25:19.312Z,8.43
2018-09-03T13:27:50.367Z,8.50
2018-09-03T13:30:19.979Z,8.53
2018-09-03T13:32:49.100Z,8.00
2018-09-03T13:35:18.282Z,8.60
2018-09-03T13:37:47.430Z,8.53
2018-09-03T13:40:16.530Z,8.67
2018-09-03T13:42:45.565Z,8.50
2018-09-03T13:45:14.652Z,8.57
2018-09-03T13:47:44.983Z,7.53
2018-09-03T13:50:14.116Z,7.27
2018-09-03T13:52:43.227Z,8.07
2018-09-03T13:55:12.288Z,8.07
2018-09-03T13:57:41.562Z,7.93
2018-09-03T14:00:11.723Z,8.10
2018-09-03T14:02:41.100Z,7.53
2018-09-03T14:05:10.430Z,7.50
2018-09-03T14:07:39.653Z,8.07
2018-09-03T14:10:09.505Z,8.03
2018-09-03T14:12:38.652Z,7.90
2018-09-03T14:15:08.330Z,7.20
2018-09-03T14:17:37.559Z,8.43
2018-09-03T14:20:06.821Z,10.67
2018-09-03T14:22:36.010Z,8.87
2018-09-03T14:25:05.512Z,8.87
2018-09-03T14:27:34.608Z,10.03
2018-09-03T14:30:03.878Z,9.37
2018-09-03T14:32:32.946Z,9.07
2018-09-03T14:35:01.984Z,9.57
2018-09-03T14:37:31.037Z,9.17
2018-09-03T14:40:00.437Z,9.50
2018-09-03T14:42:29.561Z,9.60
2018-09-03T14:45:04.015Z,9.03
2018-09-03T14:47:33.415Z,9.83
2018-09-03T14:50:02.748Z,9.13
2018-09-03T14:52:31.989Z,9.57
2018-09-03T14:55:01.181Z,9.63
2018-09-03T14:57:30.303Z,9.67
2018-09-03T14:59:59.400Z,11.47
2018-09-03T15:02:28.776Z,10.60
2018-09-03T15:04:58.203Z,10.63
2018-09-03T15:07:27.232Z,10.70
2018-09-03T15:09:56.543Z,10.37
2018-09-03T15:12:25.575Z,10.77
2018-09-03T15:14:55.046Z,10.80
2018-09-03T15:17:24.260Z,11.90
2018-09-03T15:19:53.249Z,10.97
2018-09-03T15:22:22.297Z,10.83
2018-09-03T15:24:51.531Z,10.23
2018-09-03T15:27:20.800Z,10.83
2018-09-03T15:29:49.906Z,10.67
2018-09-03T15:32:18.973Z,10.47
2018-09-03T15:34:48.152Z,10.73
2018-09-03T15:37:17.221Z,11.00
2018-09-03T15:39:46.282Z,12.07
2018-09-03T15:42:15.406Z,11.20
2018-09-03T15:44:44.423Z,10.50
2018-09-03T15:47:13.472Z,10.67
2018-09-03T15:49:42.728Z,11.33
2018-09-03T15:52:11.802Z,10.90
2018-09-03T15:54:40.899Z,11.17
2018-09-03T15:57:09.934Z,10.20
2018-09-03T15:59:39.024Z,10.77
2018-09-03T16:02:08.210Z,11.47
2018-09-03T16:04:37.280Z,11.37
2018-09-03T16:07:06.348Z,10.57
2018-09-03T16:09:35.397Z,11.70
2018-09-03T16:12:04.467Z,11.63
2018-09-03T16:14:33.798Z,10.93
2018-09-03T16:17:03.182Z,10.93
2018-09-03T16:19:32.211Z,11.27
2018-09-03T16:22:01.333Z,10.83
2018-09-03T16:24:30.378Z,11.20
2018-09-03T16:26:59.426Z,10.03
2018-09-03T16:29:28.491Z,13.57
2018-09-03T16:31:57.606Z,11.60
2018-09-03T16:34:26.706Z,9.30
2018-09-03T16:36:55.738Z,9.90
2018-09-03T16:39:24.863Z,9.13
2018-09-03T16:41:54.008Z,10.17
2018-09-03T16:44:23.360Z,9.53
2018-09-03T16:46:52.453Z,8.80
2018-09-03T16:49:21.511Z,9.00
2018-09-03T16:51:50.761Z,9.83
2018-09-03T16:54:19.912Z,9.20
2018-09-03T16:56:49.088Z,10.47
2018-09-03T16:59:18.179Z,9.40
2018-09-03T17:01:47.285Z,9.60
2018-09-03T17:04:16.412Z,10.53
2018-09-03T17:06:45.848Z,10.20
2018-09-03T17:09:15.290Z,9.97
2018-09-03T17:11:44.342Z,10.47
2018-09-03T17:14:13.390Z,10.27
2018-09-03T17:16:42.457Z,10.27
2018-09-03T17:19:11.518Z,10.37
2018-09-03T17:21:40.576Z,10.80
2018-09-03T17:24:09.809Z,10.33
2018-09-03T17:26:38.852Z,11.30
2018-09-03T17:29:08.091Z,11.07
2018-09-03T17:31:37.135Z,11.87
2018-09-03T17:34:06.218Z,11.50
2018-09-03T17:36:35.291Z,13.37
2018-09-03T17:39:04.965Z,11.07
2018-09-03T17:41:34.008Z,11.57
2018-09-03T17:44:03.074Z,11.30
2018-09-03T17:46:32.159Z,13.80
2018-09-03T17:49:01.357Z,13.47
2018-09-03T17:51:30.690Z,14.90
2018-09-03T17:53:59.994Z,13.97
2018-09-03T17:56:29.157Z,14.30
2018-09-03T17:59:05.111Z,14.83
2018-09-03T18:01:34.138Z,15.53
2018-09-03T18:04:03.269Z,15.23
2018-09-03T18:06:32.337Z,16.33
2018-09-03T18:09:01.397Z,16.13
2018-09-03T18:11:30.458Z,15.80
2018-09-03T18:13:59.573Z,15.57
2018-09-03T18:16:28.991Z,15.33
2018-09-03T18:18:58.567Z,17.13
2018-09-03T18:21:27.826Z,17.90
2018-09-03T18:23:56.865Z,16.60
2018-09-03T18:26:25.882Z,17.63
2018-09-03T18:28:54.991Z,18.70
2018-09-03T18:31:24.053Z,15.60
2018-09-03T18:33:53.146Z,18.13
2018-09-03T18:36:22.341Z,16.80
2018-09-03T18:38:51.411Z,16.93
2018-09-03T18:41:20.459Z,19.57
2018-09-03T18:43:49.559Z,15.97
2018-09-03T18:46:18.669Z,16.33
2018-09-03T18:48:47.701Z,18.97
2018-09-03T18:51:16.730Z,16.93
2018-09-03T18:53:45.758Z,15.80
2018-09-03T18:56:15.172Z,17.33
2018-09-03T18:58:44.214Z,18.53
2018-09-03T19:01:13.285Z,16.33
2018-09-03T19:03:42.394Z,14.43
2018-09-03T19:06:11.513Z,14.60
2018-09-03T19:08:40.721Z,17.63
2018-09-03T19:11:09.827Z,17.77
2018-09-03T19:13:38.911Z,15.97
2018-09-03T19:16:08.003Z,14.13
2018-09-03T19:18:37.068Z,17.63
2018-09-03T19:21:06.133Z,15.77
2018-09-03T19:23:35.126Z,16.60
2018-09-03T19:26:04.177Z,15.33
2018-09-03T19:28:33.309Z,14.93
2018-09-03T19:31:02.459Z,16.77
2018-09-03T19:33:31.549Z,16.80
2018-09-03T19:36:00.575Z,15.97
2018-09-03T19:38:29.671Z,17.60
2018-09-03T19:40:58.704Z,18.10
2018-09-03T19:43:28.155Z,16.47
2018-09-03T19:45:57.178Z,16.73
2018-09-03T19:48:26.351Z,19.20
2018-09-03T19:50:55.582Z,16.73
2018-09-03T19:53:24.630Z,16.30
2018-09-03T19:55:53.742Z,19.10
2018-09-03T19:58:22.835Z,16.00
2018-09-03T20:00:51.908Z,21.83
2018-09-03T20:03:21.176Z,19.47
2018-09-03T20:05:50.381Z,17.17
2018-09-03T20:08:20.638Z,19.50
2018-09-03T20:10:49.940Z,31.07
2018-09-03T20:13:19.072Z,18.80
2018-09-03T20:15:48.168Z,19.13
2018-09-03T20:18:17.233Z,18.50
2018-09-03T20:20:46.277Z,17.47
2018-09-03T20:23:16.045Z,17.90
2018-09-03T20:25:45.228Z,18.73
2018-09-03T20:28:14.246Z,20.07
2018-09-03T20:30:43.396Z,17.10
2018-09-03T20:33:12.660Z,21.20
2018-09-03T20:35:41.787Z,18.80
2018-09-03T20:38:11.116Z,20.10
2018-09-03T20:40:40.150Z,18.97
2018-09-03T20:43:09.182Z,15.57
2018-09-03T20:45:38.237Z,16.90
2018-09-03T20:48:07.375Z,18.57
2018-09-03T20:50:36.525Z,21.93
2018-09-03T20:53:06.018Z,18.63
2018-09-03T20:55:35.149Z,16.93
2018-09-03T20:58:04.226Z,21.03
2018-09-03T21:00:33.358Z,18.73
2018-09-03T21:03:02.467Z,17.90
2018-09-03T21:05:31.758Z,17.67
2018-09-03T21:08:00.941Z,18.43
2018-09-03T21:10:30.063Z,18.77
2018-09-03T21:12:59.140Z,19.03
2018-09-03T21:15:28.215Z,17.57
2018-09-03T21:17:57.243Z,16.43
2018-09-03T21:20:26.244Z,18.53
2018-09-03T21:22:55.293Z,17.03
2018-09-03T21:25:24.334Z,17.10
2018-09-03T21:27:53.757Z,17.57
2018-09-03T21:30:22.782Z,19.17
2018-09-03T21:35:27.110Z,16.67
2018-09-03T21:37:56.181Z,17.57
2018-09-03T21:40:25.195Z,17.57
2018-09-03T21:42:54.278Z,17.73
2018-09-03T21:45:23.302Z,17.33
2018-09-03T21:47:52.346Z,19.80
2018-09-03T21:50:21.529Z,15.83
2018-09-03T21:52:50.581Z,16.07
2018-09-03T21:55:19.633Z,16.60
2018-09-03T21:57:48.671Z,16.60
2018-09-03T22:00:17.799Z,15.53
2018-09-03T22:02:46.809Z,16.93
2018-09-03T22:05:16.270Z,17.50
2018-09-03T22:07:45.331Z,15.97
2018-09-03T22:10:14.456Z,17.47
2018-09-03T22:12:43.924Z,19.60
2018-09-03T22:15:13.036Z,17.03
2018-09-03T22:17:42.072Z,17.60
2018-09-03T22:20:11.610Z,17.67
2018-09-03T22:22:40.628Z,15.93
2018-09-03T22:25:10.011Z,18.17
2018-09-03T22:27:39.085Z,17.53
2018-09-03T22:30:08.485Z,17.07
2018-09-03T22:32:37.524Z,18.90
2018-09-03T22:35:06.643Z,17.87
2018-09-03T22:37:35.646Z,18.27
2018-09-03T22:40:04.710Z,16.93
2018-09-03T22:42:33.833Z,17.33
2018-09-03T22:45:02.859Z,18.57
2018-09-03T22:47:32.096Z,19.73
2018-09-03T22:50:01.178Z,17.63
2018-09-03T22:52:30.235Z,17.77
2018-09-03T22:54:59.291Z,18.80
2018-09-03T22:57:28.717Z,18.47
2018-09-03T22:59:57.756Z,19.67
2018-09-03T23:02:26.782Z,19.27
2018-09-03T23:04:56.106Z,18.80
2018-09-03T23:07:25.148Z,19.00
2018-09-03T23:09:54.186Z,19.50
2018-09-03T23:12:23.453Z,19.33
2018-09-03T23:14:52.568Z,18.37
2018-09-03T23:17:28.189Z,18.23
2018-09-03T23:19:57.210Z,20.47
2018-09-03T23:22:26.303Z,19.00
2018-09-03T23:24:55.623Z,18.33
2018-09-03T23:27:24.770Z,18.40
2018-09-03T23:29:53.902Z,17.20
2018-09-03T23:32:23.063Z,19.57
2018-09-03T23:34:52.139Z,17.90
2018-09-03T23:37:21.194Z,18.43
2018-09-03T23:39:50.262Z,18.67
2018-09-03T23:42:19.450Z,20.27
2018-09-03T23:44:48.516Z,17.67
2018-09-03T23:47:17.538Z,19.90
2018-09-03T23:49:46.573Z,19.27
2018-09-03T23:52:15.617Z,19.63
2018-09-03T23:54:44.938Z,18.50
2018-09-03T23:57:13.987Z,18.67
2018-09-03T23:59:43.217Z,18.80
